createdAt,value
2022-10-13T00:00:28.746Z,0.00
2022-10-13T00:01:28.801Z,0.00
2022-10-13T00:02:28.706Z,0.00
2022-10-13T00:03:28.690Z,0.00
2022-10-13T00:04:28.672Z,0.00
2022-10-13T00:05:28.654Z,0.00
2022-10-13T00:06:28.662Z,0.00
2022-10-13T00:07:28.617Z,0.00
2022-10-13T00:08:28.602Z,0.00
2022-10-13T00:09:28.581Z,0.00
2022-10-13T00:10:28.564Z,0.00
2022-10-13T00:11:28.577Z,0.00
2022-10-13T00:12:28.531Z,0.00
2022-10-13T00:13:28.511Z,0.00
2022-10-13T00:14:28.490Z,0.00
2022-10-13T00:15:28.472Z,0.00
2022-10-13T00:16:28.484Z,0.00
2022-10-13T00:17:28.435Z,0.00
2022-10-13T00:18:28.419Z,0.00
2022-10-13T00:19:28.399Z,0.00
2022-10-13T00:20:28.384Z,0.00
2022-10-13T00:21:28.390Z,0.00
2022-10-13T00:22:28.350Z,0.00
2022-10-13T00:23:28.327Z,0.00
2022-10-13T00:24:28.312Z,0.00
2022-10-13T00:25:28.294Z,0.00
2022-10-13T00:26:28.303Z,0.00
2022-10-13T00:27:28.261Z,0.00
2022-10-13T00:28:28.249Z,0.00
2022-10-13T00:29:28.226Z,0.00
2022-10-13T00:30:28.211Z,0.00
2022-10-13T00:31:28.212Z,0.00
2022-10-13T00:32:28.169Z,0.00
2022-10-13T00:33:28.153Z,0.00
2022-10-13T00:34:28.137Z,0.00
2022-10-13T00:35:28.114Z,0.00
2022-10-13T00:36:28.123Z,0.00
2022-10-13T00:37:28.077Z,0.00
2022-10-13T00:38:28.060Z,0.00
2022-10-13T00:39:28.041Z,0.00
2022-10-13T00:40:28.024Z,0.00
2022-10-13T00:41:28.030Z,0.00
2022-10-13T00:42:27.989Z,0.00
2022-10-13T00:43:27.969Z,0.00
2022-10-13T00:44:27.950Z,0.00
2022-10-13T00:45:27.940Z,0.00
2022-10-13T00:46:27.943Z,0.00
2022-10-13T00:47:27.903Z,0.00
2022-10-13T00:48:27.885Z,0.00
2022-10-13T00:49:27.867Z,0.00
2022-10-13T00:50:27.870Z,0.00
2022-10-13T00:51:27.861Z,0.00
2022-10-13T00:52:27.817Z,0.00
2022-10-13T00:53:27.797Z,0.00
2022-10-13T00:54:27.780Z,0.00
2022-10-13T00:55:27.761Z,0.00
2022-10-13T00:56:27.779Z,0.00
2022-10-13T00:57:27.727Z,0.00
2022-10-13T00:58:27.711Z,0.00
2022-10-13T00:59:27.692Z,0.00
2022-10-13T01:00:27.730Z,0.00
2022-10-13T01:01:27.679Z,0.00
2022-10-13T01:02:27.632Z,0.00
2022-10-13T01:03:27.613Z,0.00
2022-10-13T01:04:27.596Z,0.00
2022-10-13T01:05:27.574Z,0.00
2022-10-13T01:06:27.593Z,0.00
2022-10-13T01:07:27.544Z,0.00
2022-10-13T01:08:27.530Z,0.00
2022-10-13T01:09:27.511Z,0.00
2022-10-13T01:10:27.495Z,0.00
2022-10-13T01:11:27.508Z,0.00
2022-10-13T01:12:27.464Z,0.00
2022-10-13T01:13:27.442Z,0.00
2022-10-13T01:14:27.425Z,0.00
2022-10-13T01:15:27.409Z,0.00
2022-10-13T01:16:27.418Z,0.00
2022-10-13T01:17:27.376Z,0.00
2022-10-13T01:18:27.355Z,0.00
2022-10-13T01:19:27.340Z,0.00
2022-10-13T01:20:27.323Z,0.00
2022-10-13T01:21:27.332Z,0.00
2022-10-13T01:22:27.283Z,0.00
2022-10-13T01:23:27.268Z,0.00
2022-10-13T01:24:27.247Z,0.00
2022-10-13T01:25:27.231Z,0.00
2022-10-13T01:26:27.243Z,0.00
2022-10-13T01:27:27.205Z,0.00
2022-10-13T01:28:27.230Z,0.00
2022-10-13T01:29:27.162Z,0.00
2022-10-13T01:30:27.144Z,0.00
2022-10-13T01:31:27.160Z,0.00
2022-10-13T01:32:27.111Z,0.00
2022-10-13T01:33:27.100Z,0.00
2022-10-13T01:34:27.080Z,0.00
2022-10-13T01:35:27.058Z,0.00
2022-10-13T01:36:27.071Z,0.00
2022-10-13T01:37:27.025Z,0.00
2022-10-13T01:38:27.013Z,0.00
2022-10-13T01:39:26.989Z,0.00
2022-10-13T01:40:26.975Z,0.00
2022-10-13T01:41:26.985Z,0.00
2022-10-13T01:42:26.945Z,0.00
2022-10-13T01:43:26.922Z,0.00
2022-10-13T01:44:26.905Z,0.00
2022-10-13T01:45:26.890Z,0.00
2022-10-13T01:46:26.898Z,0.00
2022-10-13T01:47:26.853Z,0.00
2022-10-13T01:48:26.839Z,0.00
2022-10-13T01:49:26.819Z,0.00
2022-10-13T01:50:26.802Z,0.00
2022-10-13T01:51:26.813Z,0.00
2022-10-13T01:52:26.768Z,0.00
2022-10-13T01:53:26.748Z,0.00
2022-10-13T01:54:26.731Z,0.00
2022-10-13T01:55:26.723Z,0.00
2022-10-13T01:56:26.724Z,0.00
2022-10-13T01:57:26.686Z,0.00
2022-10-13T01:58:26.668Z,0.00
2022-10-13T01:59:26.653Z,0.00
2022-10-13T02:00:26.668Z,0.00
2022-10-13T02:01:26.641Z,0.00
2022-10-13T02:02:26.596Z,0.00
2022-10-13T02:03:26.580Z,0.00
2022-10-13T02:04:26.564Z,0.00
2022-10-13T02:05:26.542Z,0.00
2022-10-13T02:06:26.558Z,0.00
2022-10-13T02:07:26.508Z,0.00
2022-10-13T02:08:26.491Z,0.00
2022-10-13T02:09:26.478Z,0.00
2022-10-13T02:10:26.463Z,0.00
2022-10-13T02:11:26.472Z,0.00
2022-10-13T02:12:26.427Z,0.00
2022-10-13T02:13:26.405Z,0.00
2022-10-13T02:14:26.405Z,0.00
2022-10-13T02:15:26.370Z,0.00
2022-10-13T02:16:26.384Z,0.00
2022-10-13T02:17:26.342Z,0.00
2022-10-13T02:18:26.317Z,0.00
2022-10-13T02:19:26.304Z,0.00
2022-10-13T02:20:26.287Z,0.00
2022-10-13T02:21:26.297Z,0.00
2022-10-13T02:22:26.282Z,0.00
2022-10-13T02:23:26.233Z,0.00
2022-10-13T02:24:26.214Z,0.00
2022-10-13T02:25:26.195Z,0.00
2022-10-13T02:26:26.175Z,0.00
2022-10-13T02:27:26.185Z,0.00
2022-10-13T02:28:26.178Z,0.00
2022-10-13T02:29:26.122Z,0.00
2022-10-13T02:30:26.107Z,0.00
2022-10-13T02:31:26.116Z,0.00
2022-10-13T02:32:26.066Z,0.00
2022-10-13T02:33:26.050Z,0.00
2022-10-13T02:34:26.032Z,0.00
2022-10-13T02:35:26.016Z,0.00
2022-10-13T02:36:26.026Z,0.00
2022-10-13T02:37:25.984Z,0.00
2022-10-13T02:38:25.966Z,0.00
2022-10-13T02:39:25.946Z,0.00
2022-10-13T02:40:25.928Z,0.00
2022-10-13T02:41:25.933Z,0.00
2022-10-13T02:42:25.891Z,0.00
2022-10-13T02:43:25.874Z,0.00
2022-10-13T02:44:25.860Z,0.00
2022-10-13T02:45:25.840Z,0.00
2022-10-13T02:46:25.848Z,0.00
2022-10-13T02:47:25.801Z,0.00
2022-10-13T02:48:25.794Z,0.00
2022-10-13T02:49:25.766Z,0.00
2022-10-13T02:50:25.755Z,0.00
2022-10-13T02:51:25.762Z,0.00
2022-10-13T02:52:25.717Z,0.00
2022-10-13T02:53:25.713Z,0.00
2022-10-13T02:54:25.680Z,0.00
2022-10-13T02:55:25.657Z,0.00
2022-10-13T02:56:25.668Z,0.00
2022-10-13T02:57:25.621Z,0.00
2022-10-13T02:58:25.605Z,0.00
2022-10-13T02:59:25.587Z,0.00
2022-10-13T03:00:25.577Z,0.00
2022-10-13T03:01:25.576Z,0.00
2022-10-13T03:02:25.534Z,0.00
2022-10-13T03:03:25.515Z,0.00
2022-10-13T03:04:25.495Z,0.00
2022-10-13T03:05:25.473Z,0.00
2022-10-13T03:06:25.483Z,0.00
2022-10-13T03:07:25.445Z,0.00
2022-10-13T03:08:25.425Z,0.00
2022-10-13T03:09:25.408Z,0.00
2022-10-13T03:10:25.390Z,0.00
2022-10-13T03:11:25.397Z,0.00
2022-10-13T03:12:25.356Z,0.00
2022-10-13T03:13:25.370Z,0.00
2022-10-13T03:14:25.317Z,0.00
2022-10-13T03:15:25.302Z,0.00
2022-10-13T03:16:25.310Z,0.00
2022-10-13T03:17:25.268Z,0.00
2022-10-13T03:18:25.249Z,0.00
2022-10-13T03:19:25.233Z,0.00
2022-10-13T03:20:25.215Z,0.00
2022-10-13T03:21:25.227Z,0.00
2022-10-13T03:22:25.181Z,0.00
2022-10-13T03:23:25.168Z,0.00
2022-10-13T03:24:25.146Z,0.00
2022-10-13T03:25:25.134Z,0.00
2022-10-13T03:26:25.136Z,0.00
2022-10-13T03:27:25.187Z,0.00
2022-10-13T03:28:25.226Z,0.00
2022-10-13T03:29:25.058Z,0.00
2022-10-13T03:30:25.042Z,0.00
2022-10-13T03:31:25.062Z,0.00
2022-10-13T03:32:25.007Z,0.00
2022-10-13T03:33:24.990Z,0.00
2022-10-13T03:34:24.975Z,0.00
2022-10-13T03:35:24.955Z,0.00
2022-10-13T03:36:24.972Z,0.00
2022-10-13T03:37:24.921Z,0.00
2022-10-13T03:38:24.930Z,0.00
2022-10-13T03:39:24.890Z,0.00
2022-10-13T03:40:24.864Z,0.00
2022-10-13T03:41:24.877Z,0.00
2022-10-13T03:42:24.833Z,0.00
2022-10-13T03:43:24.814Z,0.00
2022-10-13T03:44:24.797Z,0.00
2022-10-13T03:45:24.783Z,0.00
2022-10-13T03:46:24.789Z,0.00
2022-10-13T03:47:24.744Z,0.00
2022-10-13T03:48:24.727Z,0.00
2022-10-13T03:49:24.712Z,0.00
2022-10-13T03:50:24.692Z,0.00
2022-10-13T03:51:24.709Z,0.00
2022-10-13T03:52:24.661Z,0.00
2022-10-13T03:53:24.645Z,0.00
2022-10-13T03:54:24.625Z,0.00
2022-10-13T03:55:24.625Z,0.00
2022-10-13T03:56:24.615Z,0.00
2022-10-13T03:57:24.596Z,0.00
2022-10-13T03:58:24.551Z,0.00
2022-10-13T03:59:24.544Z,0.00
2022-10-13T04:00:24.536Z,0.00
2022-10-13T04:01:24.566Z,0.00
2022-10-13T04:02:24.489Z,0.00
2022-10-13T04:03:24.466Z,0.00
2022-10-13T04:04:24.453Z,0.00
2022-10-13T04:05:24.432Z,0.00
2022-10-13T04:06:24.442Z,0.00
2022-10-13T04:07:24.400Z,0.00
2022-10-13T04:08:24.381Z,0.00
2022-10-13T04:09:24.364Z,0.00
2022-10-13T04:10:24.351Z,0.00
2022-10-13T04:11:24.357Z,0.00
2022-10-13T04:12:24.486Z,0.00
2022-10-13T04:13:24.295Z,0.00
2022-10-13T04:14:24.276Z,0.00
2022-10-13T04:15:24.261Z,0.00
2022-10-13T04:16:24.267Z,0.00
2022-10-13T04:17:24.222Z,0.00
2022-10-13T04:18:24.209Z,0.00
2022-10-13T04:19:24.201Z,0.00
2022-10-13T04:20:24.174Z,0.00
2022-10-13T04:21:24.183Z,0.00
2022-10-13T04:22:24.144Z,0.00
2022-10-13T04:23:24.155Z,0.00
2022-10-13T04:24:24.109Z,0.00
2022-10-13T04:25:24.086Z,0.00
2022-10-13T04:26:24.093Z,0.00
2022-10-13T04:27:24.051Z,0.00
2022-10-13T04:28:24.095Z,0.00
2022-10-13T04:29:24.019Z,0.00
2022-10-13T04:30:23.999Z,0.00
2022-10-13T04:31:24.015Z,0.00
2022-10-13T04:32:23.968Z,0.00
2022-10-13T04:33:23.945Z,0.00
2022-10-13T04:34:23.931Z,0.00
2022-10-13T04:35:23.913Z,0.00
2022-10-13T04:36:23.939Z,0.00
2022-10-13T04:37:23.882Z,0.00
2022-10-13T04:38:23.856Z,0.00
2022-10-13T04:39:23.839Z,0.00
2022-10-13T04:40:23.831Z,0.00
2022-10-13T04:41:23.838Z,0.00
2022-10-13T04:42:23.790Z,0.00
2022-10-13T04:43:23.771Z,0.00
2022-10-13T04:44:23.746Z,0.00
2022-10-13T04:45:23.730Z,0.00
2022-10-13T04:46:23.736Z,0.00
2022-10-13T04:47:23.692Z,0.00
2022-10-13T04:48:23.668Z,0.00
2022-10-13T04:49:23.653Z,0.00
2022-10-13T04:50:23.636Z,0.00
2022-10-13T04:51:23.650Z,0.00
2022-10-13T04:52:23.604Z,0.00
2022-10-13T04:53:23.589Z,0.00
2022-10-13T04:54:23.563Z,0.00
2022-10-13T04:55:23.549Z,0.00
2022-10-13T04:56:23.560Z,0.00
2022-10-13T04:57:23.519Z,0.00
2022-10-13T04:58:23.494Z,0.00
2022-10-13T04:59:23.479Z,0.00
2022-10-13T05:00:23.500Z,0.00
2022-10-13T05:01:23.440Z,0.00
2022-10-13T05:02:23.451Z,0.00
2022-10-13T05:03:23.433Z,0.00
2022-10-13T05:04:23.391Z,0.00
2022-10-13T05:05:23.366Z,0.00
2022-10-13T05:06:23.347Z,0.00
2022-10-13T05:07:23.327Z,4.00
2022-10-13T05:08:23.338Z,0.00
2022-10-13T05:09:23.290Z,0.00
2022-10-13T05:10:23.285Z,4.00
2022-10-13T05:11:23.261Z,0.00
2022-10-13T05:12:23.462Z,4.00
2022-10-13T05:13:23.713Z,4.00
2022-10-13T05:14:23.191Z,4.00
2022-10-13T05:15:23.172Z,4.00
2022-10-13T05:16:23.159Z,4.00
2022-10-13T05:17:23.168Z,4.00
2022-10-13T05:18:23.119Z,8.00
2022-10-13T05:19:23.109Z,8.00
2022-10-13T05:20:23.083Z,8.00
2022-10-13T05:21:23.105Z,8.00
2022-10-13T05:22:23.196Z,12.00
2022-10-13T05:23:23.018Z,12.00
2022-10-13T05:24:24.027Z,16.00
2022-10-13T05:25:22.989Z,20.00
2022-10-13T05:26:23.001Z,24.00
2022-10-13T05:27:22.955Z,28.00
2022-10-13T05:28:22.955Z,32.00
2022-10-13T05:29:22.919Z,36.00
2022-10-13T05:30:22.900Z,48.00
2022-10-13T05:31:22.907Z,56.00
2022-10-13T05:32:23.080Z,72.00
2022-10-13T05:33:22.846Z,84.00
2022-10-13T05:34:22.831Z,96.00
2022-10-13T05:35:22.897Z,108.00
2022-10-13T05:36:22.818Z,128.00
2022-10-13T05:37:22.773Z,148.00
2022-10-13T05:38:26.079Z,180.00
2022-10-13T05:39:23.740Z,208.00
2022-10-13T05:40:22.717Z,240.00
2022-10-13T05:41:22.729Z,276.00
2022-10-13T05:42:23.149Z,308.00
2022-10-13T05:43:22.669Z,340.00
2022-10-13T05:44:22.646Z,352.00
2022-10-13T05:45:22.634Z,352.00
2022-10-13T05:46:22.640Z,356.00
2022-10-13T05:47:22.604Z,376.00
2022-10-13T05:48:22.579Z,404.00
2022-10-13T05:49:22.560Z,444.00
2022-10-13T05:50:22.553Z,508.00
2022-10-13T05:51:22.559Z,580.00
2022-10-13T05:52:22.733Z,644.00
2022-10-13T05:53:22.486Z,716.00
2022-10-13T05:54:22.472Z,772.00
2022-10-13T05:55:22.449Z,824.00
2022-10-13T05:56:22.470Z,900.00
2022-10-13T05:57:22.416Z,972.00
2022-10-13T05:58:22.404Z,1052.00
2022-10-13T05:59:26.732Z,1144.00
2022-10-13T06:00:23.367Z,1244.00
2022-10-13T06:01:22.476Z,1352.00
2022-10-13T06:02:22.737Z,1472.00
2022-10-13T06:03:22.334Z,1596.00
2022-10-13T06:04:22.295Z,1716.00
2022-10-13T06:05:22.279Z,1816.00
2022-10-13T06:06:22.258Z,1880.00
2022-10-13T06:07:22.267Z,1924.00
2022-10-13T06:08:22.223Z,1956.00
2022-10-13T06:09:22.206Z,1988.00
2022-10-13T06:10:22.202Z,2028.00
2022-10-13T06:11:22.173Z,2072.00
2022-10-13T06:12:22.566Z,2128.00
2022-10-13T06:13:22.142Z,2220.00
2022-10-13T06:14:22.119Z,2296.00
2022-10-13T06:15:27.124Z,2308.00
2022-10-13T06:16:24.085Z,2304.00
2022-10-13T06:17:22.096Z,2336.00
2022-10-13T06:18:22.060Z,2356.00
2022-10-13T06:19:22.036Z,2360.00
2022-10-13T06:20:22.017Z,2360.00
2022-10-13T06:21:22.004Z,2344.00
2022-10-13T06:22:22.510Z,2324.00
2022-10-13T06:23:21.962Z,2308.00
2022-10-13T06:24:21.950Z,2296.00
2022-10-13T06:25:21.929Z,2296.00
2022-10-13T06:26:21.911Z,2332.00
2022-10-13T06:27:21.926Z,2432.00
2022-10-13T06:28:21.903Z,2780.00
2022-10-13T06:29:21.861Z,2772.00
2022-10-13T06:30:21.842Z,2688.00
2022-10-13T06:31:21.822Z,2940.00
2022-10-13T06:32:22.391Z,2884.00
2022-10-13T06:33:21.817Z,4796.00
2022-10-13T06:34:21.773Z,4356.00
2022-10-13T06:35:21.758Z,3464.00
2022-10-13T06:36:21.736Z,3408.00
2022-10-13T06:37:26.919Z,3324.00
2022-10-13T06:38:23.734Z,4180.00
2022-10-13T06:39:21.685Z,2824.00
2022-10-13T06:40:21.669Z,2516.00
2022-10-13T06:41:21.648Z,2544.00
2022-10-13T06:42:22.053Z,2592.00
2022-10-13T06:43:21.641Z,2640.00
2022-10-13T06:44:21.621Z,2684.00
2022-10-13T06:45:21.579Z,2724.00
2022-10-13T06:46:21.565Z,2760.00
2022-10-13T06:47:21.575Z,2784.00
2022-10-13T06:48:21.531Z,2792.00
2022-10-13T06:49:21.517Z,2784.00
2022-10-13T06:50:21.492Z,2760.00
2022-10-13T06:51:21.478Z,2712.00
2022-10-13T06:52:21.853Z,2656.00
2022-10-13T06:53:21.441Z,2684.00
2022-10-13T06:54:21.426Z,2772.00
2022-10-13T06:55:21.403Z,2800.00
2022-10-13T06:56:21.386Z,2764.00
2022-10-13T06:57:21.395Z,2744.00
2022-10-13T06:58:21.352Z,2840.00
2022-10-13T06:59:21.339Z,2992.00
2022-10-13T07:00:21.352Z,3080.00
2022-10-13T07:01:21.299Z,3068.00
2022-10-13T07:02:21.606Z,3052.00
2022-10-13T07:03:21.259Z,3068.00
2022-10-13T07:04:21.245Z,3064.00
2022-10-13T07:05:21.229Z,3004.00
2022-10-13T07:06:21.207Z,2940.00
2022-10-13T07:07:21.213Z,2892.00
2022-10-13T07:08:21.166Z,2832.00
2022-10-13T07:09:21.146Z,2752.00
2022-10-13T07:10:21.129Z,2648.00
2022-10-13T07:11:21.111Z,2600.00
2022-10-13T07:12:21.537Z,2640.00
2022-10-13T07:14:21.060Z,2960.00
2022-10-13T07:15:21.035Z,3160.00
2022-10-13T07:16:21.019Z,3444.00
2022-10-13T07:17:21.300Z,3808.00
2022-10-13T07:18:20.981Z,4056.00
2022-10-13T07:19:20.963Z,4160.00
2022-10-13T07:20:20.956Z,4136.00
2022-10-13T07:21:20.930Z,4124.00
2022-10-13T07:22:20.946Z,4036.00
2022-10-13T07:23:20.889Z,3824.00
2022-10-13T07:24:20.866Z,3592.00
2022-10-13T07:25:20.941Z,3432.00
2022-10-13T07:26:20.837Z,3540.00
2022-10-13T07:27:21.113Z,3876.00
2022-10-13T07:28:20.820Z,4220.00
2022-10-13T07:29:20.775Z,4108.00
2022-10-13T07:30:20.760Z,3780.00
2022-10-13T07:31:20.737Z,3584.00
2022-10-13T07:32:20.744Z,3536.00
2022-10-13T07:33:20.697Z,3584.00
2022-10-13T07:34:20.680Z,3640.00
2022-10-13T07:35:20.660Z,3756.00
2022-10-13T07:36:20.644Z,3972.00
2022-10-13T07:37:21.069Z,4184.00
2022-10-13T07:38:20.606Z,4304.00
2022-10-13T07:39:20.587Z,4364.00
2022-10-13T07:40:20.570Z,4460.00
2022-10-13T07:41:20.552Z,4568.00
2022-10-13T07:42:20.557Z,4684.00
2022-10-13T07:43:20.514Z,4728.00
2022-10-13T07:44:20.494Z,4568.00
2022-10-13T07:45:20.479Z,4300.00
2022-10-13T07:46:20.459Z,4108.00
2022-10-13T07:47:20.874Z,4008.00
2022-10-13T07:48:20.418Z,3948.00
2022-10-13T07:49:20.402Z,3956.00
2022-10-13T07:50:20.471Z,4128.00
2022-10-13T07:51:20.366Z,4424.00
2022-10-13T07:52:20.673Z,4688.00
2022-10-13T07:53:20.331Z,4980.00
2022-10-13T07:54:23.756Z,5448.00
2022-10-13T07:55:22.292Z,5836.00
2022-10-13T07:56:20.274Z,5984.00
2022-10-13T07:57:20.259Z,6156.00
2022-10-13T07:58:20.244Z,6324.00
2022-10-13T07:59:20.244Z,6392.00
2022-10-13T08:00:20.269Z,6552.00
2022-10-13T08:01:20.218Z,6932.00
2022-10-13T08:02:20.538Z,7324.00
2022-10-13T08:03:20.179Z,7324.00
2022-10-13T08:04:20.153Z,7304.00
2022-10-13T08:05:20.106Z,7384.00
2022-10-13T08:06:20.085Z,7324.00
2022-10-13T08:07:20.423Z,7568.00
2022-10-13T08:08:20.045Z,7992.00
2022-10-13T08:09:20.055Z,8532.00
2022-10-13T08:10:20.090Z,8892.00
2022-10-13T08:11:20.019Z,9376.00
2022-10-13T08:12:20.288Z,10016.00
2022-10-13T08:13:19.950Z,10664.00
2022-10-13T08:14:19.934Z,10980.00
2022-10-13T08:15:19.914Z,10608.00
2022-10-13T08:16:19.915Z,9996.00
2022-10-13T08:17:20.132Z,9628.00
2022-10-13T08:18:19.848Z,9452.00
2022-10-13T08:19:19.827Z,9968.00
2022-10-13T08:20:19.805Z,8808.00
2022-10-13T08:22:24.731Z,7684.00
2022-10-13T08:23:20.753Z,8100.00
2022-10-13T08:24:19.733Z,8264.00
2022-10-13T08:25:19.706Z,8588.00
2022-10-13T08:26:19.713Z,9252.00
2022-10-13T08:27:20.073Z,9780.00
2022-10-13T08:28:19.753Z,11028.00
2022-10-13T08:29:22.630Z,11756.00
2022-10-13T08:30:20.857Z,12432.00
2022-10-13T08:31:19.863Z,12036.00
2022-10-13T08:32:19.756Z,9024.00
2022-10-13T08:33:19.553Z,8108.00
2022-10-13T08:34:19.531Z,7836.00
2022-10-13T08:35:19.523Z,8640.00
2022-10-13T08:36:19.516Z,9780.00
2022-10-13T08:37:19.464Z,11296.00
2022-10-13T08:38:19.447Z,14816.00
2022-10-13T08:39:19.425Z,16416.00
2022-10-13T08:40:19.408Z,17920.00
2022-10-13T08:41:19.409Z,21216.00
2022-10-13T08:42:19.659Z,22944.00
2022-10-13T08:43:19.344Z,25952.00
2022-10-13T08:45:40.505Z,22560.00
2022-10-13T08:46:21.426Z,23552.00
2022-10-13T08:47:19.263Z,22400.00
2022-10-13T08:48:19.379Z,20832.00
2022-10-13T08:49:19.219Z,21760.00
2022-10-13T08:50:19.202Z,21600.00
2022-10-13T08:51:19.205Z,23584.00
2022-10-13T08:52:19.465Z,22688.00
2022-10-13T08:53:19.132Z,23648.00
2022-10-13T08:54:19.113Z,25056.00
2022-10-13T08:55:19.098Z,25568.00
2022-10-13T08:56:19.072Z,21952.00
2022-10-13T08:57:19.398Z,23520.00
2022-10-13T08:58:19.022Z,26208.00
2022-10-13T08:59:18.991Z,27552.00
2022-10-13T09:00:18.973Z,33696.00
2022-10-13T09:01:18.985Z,36288.00
2022-10-13T09:02:18.964Z,40992.00
2022-10-13T09:03:18.904Z,47808.00
2022-10-13T09:04:18.879Z,54080.00
2022-10-13T09:05:18.862Z,54624.00
2022-10-13T09:06:18.835Z,35008.00
2022-10-13T09:07:19.135Z,40576.00
2022-10-13T09:08:18.790Z,36256.00
2022-10-13T09:09:18.795Z,35488.00
2022-10-13T09:10:18.779Z,32704.00
2022-10-13T09:11:18.729Z,31872.00
2022-10-13T09:12:18.954Z,40288.00
2022-10-13T09:13:18.686Z,46752.00
2022-10-13T09:14:18.693Z,45920.00
2022-10-13T09:15:18.649Z,48352.00
2022-10-13T09:16:18.618Z,55104.00
2022-10-13T09:17:18.619Z,52960.00
2022-10-13T09:18:18.587Z,48672.00
2022-10-13T09:19:18.596Z,45984.00
2022-10-13T09:20:18.548Z,55072.00
2022-10-13T09:21:18.531Z,56960.00
2022-10-13T09:22:18.738Z,57280.00
2022-10-13T09:23:18.489Z,56288.00
2022-10-13T09:24:18.499Z,54528.00
2022-10-13T09:25:18.454Z,54848.00
2022-10-13T09:26:18.449Z,66560.00
2022-10-13T09:27:18.411Z,76512.00
2022-10-13T09:28:18.453Z,88384.00
2022-10-13T09:29:18.402Z,106816.00
2022-10-13T09:30:18.352Z,83968.00
2022-10-13T09:31:18.336Z,39200.00
2022-10-13T09:32:18.638Z,31840.00
2022-10-13T09:33:18.298Z,31104.00
2022-10-13T09:34:18.310Z,27840.00
2022-10-13T09:35:18.264Z,26016.00
2022-10-13T09:36:18.240Z,23776.00
2022-10-13T09:37:18.220Z,19936.00
2022-10-13T09:38:18.200Z,22560.00
2022-10-13T09:39:18.210Z,24256.00
2022-10-13T09:40:18.165Z,23584.00
2022-10-13T09:41:18.144Z,22144.00
2022-10-13T09:42:18.490Z,22304.00
2022-10-13T09:43:18.111Z,20928.00
2022-10-13T09:44:18.114Z,20096.00
2022-10-13T09:45:18.071Z,18016.00
2022-10-13T09:46:18.048Z,17216.00
2022-10-13T09:47:18.062Z,17280.00
2022-10-13T09:48:18.011Z,16320.00
2022-10-13T09:49:18.024Z,16480.00
2022-10-13T09:50:17.975Z,15552.00
2022-10-13T09:51:17.961Z,16640.00
2022-10-13T09:52:18.241Z,17248.00
2022-10-13T09:53:17.916Z,17408.00
2022-10-13T09:54:17.925Z,17632.00
2022-10-13T09:55:17.879Z,18560.00
2022-10-13T09:56:17.860Z,17536.00
2022-10-13T09:57:17.842Z,17344.00
2022-10-13T09:58:17.826Z,18336.00
2022-10-13T09:59:17.830Z,20512.00
2022-10-13T10:00:17.791Z,20032.00
2022-10-13T10:01:17.763Z,19936.00
2022-10-13T10:02:19.473Z,23968.00
2022-10-13T10:03:17.726Z,24224.00
2022-10-13T10:04:17.794Z,21984.00
2022-10-13T10:05:17.687Z,21984.00
2022-10-13T10:06:17.668Z,21600.00
2022-10-13T10:07:17.939Z,21440.00
2022-10-13T10:08:17.635Z,23488.00
2022-10-13T10:09:17.638Z,25856.00
2022-10-13T10:10:17.593Z,25792.00
2022-10-13T10:11:17.573Z,23680.00
2022-10-13T10:12:17.560Z,19904.00
2022-10-13T10:13:17.538Z,18240.00
2022-10-13T10:14:17.546Z,15680.00
2022-10-13T10:15:17.519Z,14272.00
2022-10-13T10:16:17.482Z,13748.00
2022-10-13T10:17:17.845Z,13476.00
2022-10-13T10:18:17.440Z,13228.00
2022-10-13T10:19:17.443Z,13116.00
2022-10-13T10:20:17.397Z,12884.00
2022-10-13T10:21:17.389Z,12636.00
2022-10-13T10:22:17.361Z,12424.00
2022-10-13T10:23:17.345Z,12104.00
2022-10-13T10:24:17.354Z,12024.00
2022-10-13T10:25:17.307Z,11980.00
2022-10-13T10:26:22.225Z,11928.00
2022-10-13T10:28:17.333Z,11940.00
2022-10-13T10:29:17.259Z,11440.00
2022-10-13T10:30:17.208Z,11144.00
2022-10-13T10:31:17.196Z,11044.00
2022-10-13T10:32:17.382Z,12276.00
2022-10-13T10:33:17.148Z,12132.00
2022-10-13T10:34:17.154Z,11920.00
2022-10-13T10:35:17.105Z,12412.00
2022-10-13T10:36:17.126Z,12392.00
2022-10-13T10:37:21.104Z,12320.00
2022-10-13T10:38:19.050Z,12528.00
2022-10-13T10:39:17.058Z,11684.00
2022-10-13T10:40:17.036Z,11456.00
2022-10-13T10:41:16.992Z,11512.00
2022-10-13T10:42:17.172Z,11616.00
2022-10-13T10:43:16.946Z,11240.00
2022-10-13T10:44:16.952Z,11324.00
2022-10-13T10:45:16.911Z,11404.00
2022-10-13T10:46:16.888Z,11452.00
2022-10-13T10:47:19.693Z,11520.00
2022-10-13T10:48:17.848Z,11704.00
2022-10-13T10:49:16.854Z,12008.00
2022-10-13T10:50:16.842Z,12072.00
2022-10-13T10:51:16.785Z,12264.00
2022-10-13T10:52:16.764Z,12376.00
2022-10-13T10:53:16.747Z,12444.00
2022-10-13T10:54:16.776Z,12784.00
2022-10-13T10:55:16.700Z,13032.00
2022-10-13T10:56:16.684Z,13080.00
2022-10-13T10:57:16.824Z,12788.00
2022-10-13T10:58:16.634Z,12728.00
2022-10-13T10:59:16.648Z,12912.00
2022-10-13T11:00:16.730Z,13544.00
2022-10-13T11:01:16.605Z,13916.00
2022-10-13T11:02:16.578Z,13860.00
2022-10-13T11:03:16.529Z,13992.00
2022-10-13T11:04:16.534Z,13960.00
2022-10-13T11:05:16.482Z,13636.00
2022-10-13T11:06:16.464Z,13192.00
2022-10-13T11:07:16.441Z,12004.00
2022-10-13T11:08:16.419Z,11520.00
2022-10-13T11:09:17.428Z,11228.00
2022-10-13T11:10:16.380Z,11132.00
2022-10-13T11:11:16.355Z,11520.00
2022-10-13T11:12:16.340Z,11272.00
2022-10-13T11:13:16.312Z,10828.00
2022-10-13T11:14:16.321Z,10468.00
2022-10-13T11:15:16.315Z,10404.00
2022-10-13T11:16:16.250Z,10716.00
2022-10-13T11:17:16.227Z,10912.00
2022-10-13T11:18:19.778Z,11020.00
2022-10-13T11:19:18.212Z,10880.00
2022-10-13T11:20:16.164Z,10668.00
2022-10-13T11:21:16.142Z,10984.00
2022-10-13T11:22:16.123Z,11960.00
2022-10-13T11:23:16.104Z,12308.00
2022-10-13T11:24:16.107Z,11764.00
2022-10-13T11:25:16.058Z,11292.00
2022-10-13T11:26:16.044Z,11208.00
2022-10-13T11:27:16.020Z,11144.00
2022-10-13T11:28:16.055Z,10876.00
2022-10-13T11:29:16.006Z,10856.00
2022-10-13T11:30:15.978Z,11116.00
2022-10-13T11:31:15.938Z,11944.00
2022-10-13T11:32:15.915Z,12212.00
2022-10-13T11:33:15.890Z,12080.00
2022-10-13T11:34:15.904Z,12176.00
2022-10-13T11:35:15.854Z,12028.00
2022-10-13T11:36:15.827Z,12476.00
2022-10-13T11:37:15.807Z,13140.00
2022-10-13T11:38:17.977Z,12680.00
2022-10-13T11:39:16.847Z,11612.00
2022-10-13T11:40:15.744Z,10804.00
2022-10-13T11:41:15.722Z,10440.00
2022-10-13T11:42:15.752Z,10164.00
2022-10-13T11:43:15.684Z,9920.00
2022-10-13T11:44:15.742Z,10604.00
2022-10-13T11:45:15.645Z,11500.00
2022-10-13T11:46:15.621Z,12612.00
2022-10-13T11:47:15.604Z,11600.00
2022-10-13T11:48:15.596Z,11624.00
2022-10-13T11:49:15.587Z,11184.00
2022-10-13T11:50:15.541Z,11660.00
2022-10-13T11:51:16.524Z,10884.00
2022-10-13T11:52:16.501Z,11948.00
2022-10-13T11:53:15.482Z,11028.00
2022-10-13T11:54:15.498Z,10160.00
2022-10-13T11:55:15.439Z,9092.00
2022-10-13T11:56:15.414Z,8236.00
2022-10-13T11:57:15.393Z,7744.00
2022-10-13T11:58:15.382Z,7576.00
2022-10-13T11:59:15.388Z,7348.00
2022-10-13T12:00:15.329Z,6324.00
2022-10-13T12:01:15.310Z,5804.00
2022-10-13T12:02:18.731Z,5824.00
2022-10-13T12:03:16.324Z,5680.00
2022-10-13T12:04:15.278Z,5352.00
2022-10-13T12:05:15.236Z,5636.00
2022-10-13T12:06:15.210Z,6396.00
2022-10-13T12:07:15.185Z,7516.00
2022-10-13T12:08:15.165Z,8220.00
2022-10-13T12:09:15.172Z,8420.00
2022-10-13T12:10:15.122Z,9016.00
2022-10-13T12:11:15.099Z,9404.00
2022-10-13T12:12:15.082Z,9592.00
2022-10-13T12:13:15.059Z,9360.00
2022-10-13T12:14:15.064Z,8944.00
2022-10-13T12:15:15.014Z,8852.00
2022-10-13T12:16:14.991Z,8888.00
2022-10-13T12:17:19.683Z,8580.00
2022-10-13T12:18:15.956Z,8376.00
2022-10-13T12:19:14.935Z,7552.00
2022-10-13T12:20:14.944Z,7496.00
2022-10-13T12:21:14.896Z,7540.00
2022-10-13T12:22:14.870Z,8024.00
2022-10-13T12:23:14.848Z,8476.00
2022-10-13T12:24:14.853Z,8372.00
2022-10-13T12:25:14.805Z,7888.00
2022-10-13T12:26:14.790Z,8060.00
2022-10-13T12:27:14.774Z,7512.00
2022-10-13T12:28:14.764Z,7604.00
2022-10-13T12:29:14.722Z,7848.00
2022-10-13T12:30:14.752Z,8184.00
2022-10-13T12:31:14.677Z,8288.00
2022-10-13T12:32:14.653Z,8680.00
2022-10-13T12:33:14.635Z,8960.00
2022-10-13T12:34:14.641Z,9592.00